createdAt,value
2022-08-16T00:00:04.218Z,3.08
2022-08-16T00:02:31.726Z,3.26
2022-08-16T00:04:59.639Z,3.01
2022-08-16T00:07:26.671Z,3.09
2022-08-16T00:09:55.781Z,3.09
2022-08-16T00:12:23.744Z,3.15
2022-08-16T00:14:50.164Z,3.20
2022-08-16T00:17:18.960Z,2.89
2022-08-16T00:19:46.237Z,2.91
2022-08-16T00:22:13.356Z,2.91
2022-08-16T00:24:44.743Z,2.80
2022-08-16T00:27:13.456Z,2.96
2022-08-16T00:29:40.646Z,3.07
2022-08-16T00:32:07.415Z,3.08
2022-08-16T00:34:45.193Z,3.10
2022-08-16T00:37:20.562Z,3.21
2022-08-16T00:39:47.749Z,3.13
2022-08-16T00:42:29.564Z,2.91
2022-08-16T00:44:57.549Z,3.26
2022-08-16T00:47:24.025Z,3.10
2022-08-16T00:49:56.377Z,2.83
2022-08-16T00:52:29.137Z,3.04
2022-08-16T00:54:57.108Z,3.11
2022-08-16T00:57:23.838Z,3.08
2022-08-16T00:59:58.772Z,2.75
2022-08-16T01:02:31.270Z,2.72
2022-08-16T01:05:04.667Z,2.93
2022-08-16T01:07:50.517Z,2.86
2022-08-16T01:10:18.720Z,2.85
2022-08-16T01:12:45.200Z,2.74
2022-08-16T01:15:11.603Z,2.76
2022-08-16T01:17:37.997Z,2.77
2022-08-16T01:20:23.777Z,2.81
2022-08-16T01:22:52.314Z,2.95
2022-08-16T01:25:19.212Z,2.89
2022-08-16T01:27:48.076Z,2.97
2022-08-16T01:30:19.259Z,2.52
2022-08-16T01:33:01.497Z,2.74
2022-08-16T01:35:35.278Z,2.81
2022-08-16T01:38:02.803Z,2.70
2022-08-16T01:40:31.349Z,2.65
2022-08-16T01:42:57.758Z,2.93
2022-08-16T01:45:24.393Z,2.71
2022-08-16T01:48:20.004Z,2.99
2022-08-16T01:51:08.346Z,2.74
2022-08-16T01:53:33.310Z,2.66
2022-08-16T01:56:00.029Z,2.74
2022-08-16T01:58:26.409Z,2.91
2022-08-16T02:00:53.480Z,2.86
2022-08-16T02:03:24.379Z,2.91
2022-08-16T02:05:52.921Z,2.91
2022-08-16T02:08:32.713Z,2.88
2022-08-16T02:11:00.406Z,2.95
2022-08-16T02:13:27.724Z,2.52
2022-08-16T02:15:56.610Z,2.83
2022-08-16T02:18:23.251Z,2.75
2022-08-16T02:20:50.178Z,2.92
2022-08-16T02:23:19.904Z,2.75
2022-08-16T02:25:50.926Z,2.71
2022-08-16T02:28:19.321Z,2.63
2022-08-16T02:30:50.011Z,2.72
2022-08-16T02:33:17.573Z,2.82
2022-08-16T02:35:54.063Z,2.82
2022-08-16T02:38:24.649Z,2.84
2022-08-16T02:40:51.157Z,2.87
2022-08-16T02:43:17.554Z,2.72
2022-08-16T02:45:43.995Z,2.95
2022-08-16T02:48:28.354Z,2.68
2022-08-16T02:51:06.963Z,2.79
2022-08-16T02:53:37.531Z,2.81
2022-08-16T02:56:04.212Z,2.78
2022-08-16T02:58:30.697Z,3.07
2022-08-16T03:00:57.279Z,2.80
2022-08-16T03:03:24.413Z,2.72
2022-08-16T03:05:52.406Z,2.71
2022-08-16T03:08:50.110Z,2.75
2022-08-16T03:11:05.948Z,2.84
2022-08-16T03:13:43.370Z,2.81
2022-08-16T03:16:37.763Z,2.82
2022-08-16T03:19:00.385Z,2.68
2022-08-16T03:21:28.296Z,2.62
2022-08-16T03:24:04.775Z,2.84
2022-08-16T03:26:31.640Z,2.61
2022-08-16T03:28:58.418Z,2.71
2022-08-16T03:31:25.786Z,2.65
2022-08-16T03:34:01.342Z,3.01
2022-08-16T03:36:32.752Z,2.90
2022-08-16T03:38:59.326Z,2.65
2022-08-16T03:41:29.512Z,2.94
2022-08-16T03:44:12.170Z,2.77
2022-08-16T03:46:58.655Z,2.75
2022-08-16T03:49:37.172Z,3.11
2022-08-16T03:52:03.911Z,2.77
2022-08-16T03:54:30.308Z,2.80
2022-08-16T03:56:58.564Z,2.81
2022-08-16T03:59:25.424Z,3.03
2022-08-16T04:01:55.567Z,2.80
2022-08-16T04:04:30.922Z,3.11
2022-08-16T04:07:00.078Z,2.78
2022-08-16T04:09:26.477Z,2.71
2022-08-16T04:11:52.872Z,2.74
2022-08-16T04:14:33.019Z,2.81
2022-08-16T04:16:59.888Z,2.98
2022-08-16T04:19:31.478Z,3.03
2022-08-16T04:21:58.395Z,2.93
2022-08-16T04:24:28.614Z,2.81
2022-08-16T04:26:55.465Z,2.70
2022-08-16T04:29:24.924Z,2.80
2022-08-16T04:31:55.584Z,2.91
2022-08-16T04:34:24.954Z,2.91
2022-08-16T04:36:52.845Z,2.88
2022-08-16T04:39:19.907Z,2.84
2022-08-16T04:41:50.365Z,3.08
2022-08-16T04:44:32.480Z,2.93
2022-08-16T04:47:21.926Z,3.10
2022-08-16T04:49:50.708Z,2.96
2022-08-16T04:52:34.785Z,3.15
2022-08-16T04:55:03.428Z,2.98
2022-08-16T04:57:30.475Z,3.28
2022-08-16T04:59:56.950Z,3.06
2022-08-16T05:02:41.666Z,2.92
2022-08-16T05:05:17.008Z,2.95
2022-08-16T05:07:57.714Z,3.00
2022-08-16T05:10:25.185Z,3.08
2022-08-16T05:12:51.782Z,3.17
2022-08-16T05:15:18.660Z,3.25
2022-08-16T05:17:45.103Z,3.35
2022-08-16T05:20:35.594Z,3.35
2022-08-16T05:22:59.556Z,3.31
2022-08-16T05:25:40.675Z,3.27
2022-08-16T05:28:13.194Z,3.23
2022-08-16T05:30:39.727Z,3.16
2022-08-16T05:33:16.194Z,3.16
2022-08-16T05:35:43.042Z,3.27
2022-08-16T05:38:32.680Z,3.25
2022-08-16T05:40:59.555Z,3.54
2022-08-16T05:43:26.726Z,3.33
2022-08-16T05:45:53.132Z,3.20
2022-08-16T05:48:19.590Z,3.53
2022-08-16T05:50:53.427Z,3.56
2022-08-16T05:53:19.954Z,3.45
2022-08-16T05:55:50.529Z,3.51
2022-08-16T05:58:31.452Z,3.32
2022-08-16T06:00:59.719Z,3.50
2022-08-16T06:03:26.140Z,3.43
2022-08-16T06:05:56.064Z,3.78
2022-08-16T06:08:31.503Z,3.22
2022-08-16T06:11:09.778Z,3.27
2022-08-16T06:13:37.073Z,3.25
2022-08-16T06:16:03.448Z,3.45
2022-08-16T06:18:32.272Z,3.38
2022-08-16T06:21:00.060Z,3.27
2022-08-16T06:23:27.120Z,3.27
2022-08-16T06:25:58.915Z,3.38
2022-08-16T06:28:34.950Z,3.52
2022-08-16T06:31:02.537Z,3.69
2022-08-16T06:33:41.091Z,3.42
2022-08-16T06:36:08.536Z,3.58
2022-08-16T06:38:34.990Z,3.29
2022-08-16T06:41:01.373Z,3.12
2022-08-16T06:43:28.964Z,3.39
2022-08-16T06:45:55.372Z,3.68
2022-08-16T06:48:32.863Z,3.88
2022-08-16T06:51:00.247Z,3.73
2022-08-16T06:53:26.723Z,3.79
2022-08-16T06:55:56.200Z,3.65
2022-08-16T06:58:31.225Z,3.67
2022-08-16T07:00:59.786Z,3.56
2022-08-16T07:03:28.357Z,3.64
2022-08-16T07:05:59.096Z,3.74
2022-08-16T07:08:27.333Z,3.60
2022-08-16T07:10:54.034Z,3.59
2022-08-16T07:13:43.967Z,3.44
2022-08-16T07:16:07.150Z,3.44
2022-08-16T07:18:33.538Z,3.59
2022-08-16T07:21:01.952Z,3.46
2022-08-16T07:23:38.817Z,3.50
2022-08-16T07:26:05.875Z,3.34
2022-08-16T07:28:32.662Z,3.44
2022-08-16T07:30:59.060Z,3.54
2022-08-16T07:33:51.459Z,3.64
2022-08-16T07:36:11.999Z,3.51
2022-08-16T07:38:38.472Z,3.80
2022-08-16T07:41:09.967Z,3.67
2022-08-16T07:43:37.063Z,3.49
2022-08-16T07:46:07.145Z,3.50
2022-08-16T07:48:55.101Z,3.60
2022-08-16T07:51:21.617Z,3.96
2022-08-16T07:53:49.815Z,3.78
2022-08-16T07:56:34.033Z,3.95
2022-08-16T07:59:03.825Z,3.82
2022-08-16T08:01:31.136Z,3.69
2022-08-16T08:03:57.535Z,3.70
2022-08-16T08:06:25.284Z,3.58
2022-08-16T08:08:52.797Z,3.66
2022-08-16T08:11:24.110Z,3.71
2022-08-16T08:13:54.797Z,3.63
2022-08-16T08:16:21.197Z,3.60
2022-08-16T08:18:49.733Z,3.42
2022-08-16T08:21:17.156Z,3.68
2022-08-16T08:23:45.320Z,3.81
2022-08-16T08:26:17.731Z,3.71
2022-08-16T08:28:44.619Z,3.83
2022-08-16T08:31:17.215Z,3.95
2022-08-16T08:33:47.354Z,4.11
2022-08-16T08:36:22.150Z,3.68
2022-08-16T08:38:48.774Z,3.76
2022-08-16T08:41:18.632Z,3.98
2022-08-16T08:43:46.100Z,3.77
2022-08-16T08:46:18.097Z,3.58
2022-08-16T08:48:58.367Z,3.69
2022-08-16T08:51:27.592Z,4.00
2022-08-16T08:53:58.716Z,3.71
2022-08-16T08:56:25.806Z,4.13
2022-08-16T08:58:53.634Z,3.98
2022-08-16T09:01:31.649Z,3.93
2022-08-16T09:04:03.529Z,3.99
2022-08-16T09:06:31.144Z,3.92
2022-08-16T09:08:57.684Z,3.89
2022-08-16T09:11:40.438Z,3.90
2022-08-16T09:14:07.570Z,4.12
2022-08-16T09:17:01.086Z,3.97
2022-08-16T09:19:20.483Z,3.60
2022-08-16T09:21:59.673Z,3.78
2022-08-16T09:24:52.551Z,3.94
2022-08-16T09:27:12.519Z,3.85
2022-08-16T09:29:44.516Z,4.19
2022-08-16T09:32:12.359Z,3.98
2022-08-16T09:34:38.803Z,3.79
2022-08-16T09:37:17.788Z,4.25
2022-08-16T09:39:50.317Z,4.00
2022-08-16T09:42:16.940Z,4.05
2022-08-16T09:45:12.535Z,4.10
2022-08-16T09:47:57.201Z,4.39
2022-08-16T09:50:23.086Z,3.93
2022-08-16T09:52:51.806Z,3.49
2022-08-16T09:55:18.876Z,4.13
2022-08-16T09:57:52.659Z,3.94
2022-08-16T10:00:44.781Z,3.85
2022-08-16T10:03:06.401Z,3.92
2022-08-16T10:05:36.662Z,4.26
2022-08-16T10:08:25.471Z,4.05
2022-08-16T10:10:49.554Z,4.28
2022-08-16T10:13:16.546Z,4.22
2022-08-16T10:15:43.299Z,4.23
2022-08-16T10:19:00.794Z,4.21
2022-08-16T10:21:08.321Z,3.86
2022-08-16T10:23:35.430Z,4.17
2022-08-16T10:27:17.463Z,4.15
2022-08-16T10:28:50.266Z,4.48
2022-08-16T10:31:43.440Z,4.22
2022-08-16T10:34:03.776Z,4.18
2022-08-16T10:36:38.740Z,4.30
2022-08-16T10:39:08.531Z,4.50
2022-08-16T10:41:35.299Z,4.65
2022-08-16T10:44:04.507Z,4.29
2022-08-16T10:46:41.976Z,4.08
2022-08-16T10:49:09.131Z,4.37
2022-08-16T10:52:01.846Z,4.37
2022-08-16T10:54:30.622Z,4.34
2022-08-16T10:56:57.366Z,3.98
2022-08-16T10:59:38.944Z,3.76
2022-08-16T11:02:59.268Z,3.95
2022-08-16T11:05:12.244Z,4.22
2022-08-16T11:07:45.086Z,4.48
2022-08-16T11:10:20.033Z,4.48
2022-08-16T11:12:47.207Z,4.02
2022-08-16T11:15:16.839Z,3.93
2022-08-16T11:17:44.800Z,4.27
2022-08-16T11:22:58.239Z,4.06
2022-08-16T11:29:11.902Z,4.17
2022-08-16T11:30:59.883Z,3.89
2022-08-16T11:33:53.333Z,3.78
2022-08-16T11:36:22.519Z,3.60
2022-08-16T11:38:57.307Z,4.29
2022-08-16T11:41:24.335Z,4.77
2022-08-16T11:43:52.918Z,4.98
2022-08-16T11:46:45.300Z,4.76
2022-08-16T11:49:09.914Z,5.21
2022-08-16T11:51:39.334Z,4.50
2022-08-16T11:54:05.878Z,4.26
2022-08-16T11:56:53.259Z,3.79
2022-08-16T11:59:24.454Z,3.83
2022-08-16T12:01:59.143Z,3.74
2022-08-16T12:04:26.659Z,3.48
2022-08-16T12:06:53.776Z,3.64
2022-08-16T12:09:21.185Z,3.41
2022-08-16T12:11:52.496Z,3.49
2022-08-16T12:14:23.099Z,3.54
2022-08-16T12:16:55.179Z,3.39
2022-08-16T12:19:21.881Z,3.41
2022-08-16T12:21:59.989Z,3.95
2022-08-16T12:24:26.590Z,3.75
2022-08-16T12:26:53.023Z,3.40
2022-08-16T12:29:20.564Z,3.58
2022-08-16T12:32:00.790Z,3.41
2022-08-16T12:34:29.012Z,3.66
2022-08-16T12:36:55.758Z,3.72
2022-08-16T12:39:22.268Z,3.64
2022-08-16T12:41:48.703Z,3.40
2022-08-16T12:44:19.818Z,3.64
2022-08-16T12:46:46.713Z,3.76
2022-08-16T12:49:14.052Z,3.53
2022-08-16T12:51:58.207Z,3.97
2022-08-16T12:54:27.144Z,3.47
2022-08-16T12:56:55.593Z,3.59
2022-08-16T12:59:22.005Z,3.69
2022-08-16T13:01:55.420Z,3.59
2022-08-16T13:04:25.185Z,3.56
2022-08-16T13:06:52.489Z,3.55
2022-08-16T13:09:19.621Z,3.54
2022-08-16T13:11:48.320Z,3.42
2022-08-16T13:14:32.137Z,3.50
2022-08-16T13:16:59.655Z,3.39
2022-08-16T13:19:39.381Z,3.62
2022-08-16T13:22:18.602Z,3.83
2022-08-16T13:24:46.263Z,3.65
2022-08-16T13:27:13.020Z,3.39
2022-08-16T13:29:43.697Z,3.72
2022-08-16T13:32:10.770Z,3.48
2022-08-16T13:34:57.272Z,3.57
2022-08-16T13:37:23.780Z,3.53
2022-08-16T13:39:52.402Z,3.41
2022-08-16T13:42:18.845Z,3.53
2022-08-16T13:44:56.464Z,3.56
2022-08-16T13:47:24.651Z,3.44
2022-08-16T13:49:56.553Z,3.60
2022-08-16T13:52:22.961Z,3.61
2022-08-16T13:54:51.430Z,3.48
2022-08-16T13:57:17.930Z,3.62
2022-08-16T13:59:45.386Z,3.42
2022-08-16T14:02:16.733Z,3.70
2022-08-16T14:04:44.377Z,3.38
2022-08-16T14:07:11.011Z,3.75
2022-08-16T14:09:37.479Z,3.51
2022-08-16T14:12:04.259Z,3.63
2022-08-16T14:14:36.361Z,3.37
2022-08-16T14:17:04.079Z,3.42
2022-08-16T14:19:30.537Z,3.50
2022-08-16T14:22:14.955Z,3.64
2022-08-16T14:24:41.993Z,3.34
2022-08-16T14:27:13.184Z,3.44
2022-08-16T14:29:41.872Z,3.55
2022-08-16T14:32:08.351Z,3.73
2022-08-16T14:34:35.857Z,3.66
2022-08-16T14:37:04.441Z,3.55
2022-08-16T14:39:31.023Z,3.72
2022-08-16T14:41:58.317Z,3.60
2022-08-16T14:44:26.981Z,3.78
2022-08-16T14:46:54.734Z,3.62
2022-08-16T14:49:22.234Z,3.62
2022-08-16T14:51:48.777Z,3.59
2022-08-16T14:54:15.310Z,3.40
2022-08-16T14:56:43.248Z,3.56
2022-08-16T14:59:13.229Z,3.71
2022-08-16T15:01:42.468Z,3.69
2022-08-16T15:04:39.227Z,3.54
2022-08-16T15:07:11.317Z,3.69
2022-08-16T15:09:44.188Z,3.63
2022-08-16T15:12:27.069Z,3.69
2022-08-16T15:14:57.831Z,3.72
2022-08-16T15:17:25.749Z,3.86
2022-08-16T15:19:53.363Z,3.45
2022-08-16T15:22:19.831Z,4.09
2022-08-16T15:24:48.848Z,3.82
2022-08-16T15:27:16.108Z,3.77
2022-08-16T15:29:42.569Z,3.63
2022-08-16T15:32:09.985Z,3.75
2022-08-16T15:34:53.408Z,3.85
2022-08-16T15:37:42.411Z,3.95
2022-08-16T15:40:09.394Z,3.51
2022-08-16T15:42:54.026Z,3.45
2022-08-16T15:45:20.714Z,3.55
2022-08-16T15:47:55.573Z,3.59
2022-08-16T15:50:22.505Z,3.56
2022-08-16T15:52:48.920Z,3.55
2022-08-16T15:55:29.584Z,3.55
2022-08-16T15:58:01.687Z,3.85
2022-08-16T16:00:48.189Z,3.60
2022-08-16T16:03:14.648Z,3.67
2022-08-16T16:05:41.174Z,3.58
2022-08-16T16:08:10.758Z,3.46
2022-08-16T16:10:39.408Z,3.62
2022-08-16T16:13:06.119Z,3.45
2022-08-16T16:15:35.438Z,3.39
2022-08-16T16:18:09.044Z,3.49
2022-08-16T16:20:37.332Z,3.59
2022-08-16T16:23:06.476Z,3.49
2022-08-16T16:25:37.145Z,3.36
2022-08-16T16:28:03.555Z,3.26
2022-08-16T16:30:45.299Z,3.26
2022-08-16T16:33:12.101Z,3.28
2022-08-16T16:35:47.269Z,3.31
2022-08-16T16:38:21.479Z,3.63
2022-08-16T16:40:54.294Z,3.35
2022-08-16T16:43:20.786Z,3.74
2022-08-16T16:45:52.611Z,3.79
2022-08-16T16:48:19.006Z,3.49
2022-08-16T16:50:45.678Z,3.47
2022-08-16T16:53:18.007Z,3.36
2022-08-16T16:55:52.092Z,3.65
2022-08-16T16:58:35.417Z,3.58
2022-08-16T17:01:03.200Z,3.50
2022-08-16T17:03:30.259Z,3.21
2022-08-16T17:06:00.250Z,3.49
2022-08-16T17:08:35.461Z,3.70
2022-08-16T17:11:02.170Z,3.50
2022-08-16T17:13:30.437Z,3.64
2022-08-16T17:15:56.891Z,3.75
2022-08-16T17:19:16.335Z,3.56
2022-08-16T17:21:10.935Z,3.74
2022-08-16T17:23:58.008Z,3.53
2022-08-16T17:26:30.001Z,3.54
2022-08-16T17:28:59.593Z,3.46
2022-08-16T17:31:38.216Z,3.51
2022-08-16T17:34:29.544Z,3.40
2022-08-16T17:36:54.558Z,3.52
2022-08-16T17:39:21.142Z,3.43
2022-08-16T17:41:50.143Z,3.40
2022-08-16T17:44:16.622Z,3.55
2022-08-16T17:46:50.771Z,3.53
2022-08-16T17:49:19.246Z,3.65
2022-08-16T17:51:45.675Z,3.88
2022-08-16T17:54:18.793Z,3.72
2022-08-16T17:56:56.426Z,3.73
2022-08-16T17:59:22.833Z,3.80
2022-08-16T18:01:49.411Z,4.07
2022-08-16T18:04:48.237Z,3.98
2022-08-16T18:07:02.335Z,4.25
2022-08-16T18:09:28.784Z,3.87
2022-08-16T18:11:57.076Z,3.79
2022-08-16T18:14:50.839Z,4.15
2022-08-16T18:17:10.151Z,4.29
2022-08-16T18:19:36.558Z,4.39
2022-08-16T18:22:03.372Z,4.65
2022-08-16T18:24:29.782Z,4.61
2022-08-16T18:26:56.187Z,4.66
2022-08-16T18:29:22.740Z,4.53
2022-08-16T18:31:49.156Z,4.53
2022-08-16T18:34:15.588Z,4.64
2022-08-16T18:36:41.961Z,4.93
2022-08-16T18:39:08.391Z,4.83
2022-08-16T18:41:34.790Z,4.50
2022-08-16T18:44:24.835Z,4.82
2022-08-16T18:46:50.675Z,4.98
2022-08-16T18:49:18.165Z,4.97
2022-08-16T18:51:44.670Z,4.87
2022-08-16T18:54:11.229Z,4.38
2022-08-16T18:56:55.680Z,4.56
2022-08-16T18:59:24.045Z,4.79
2022-08-16T19:01:50.474Z,5.10
2022-08-16T19:04:50.466Z,5.16
2022-08-16T19:07:03.342Z,5.19
2022-08-16T19:09:29.770Z,5.25
2022-08-16T19:11:56.155Z,5.31
2022-08-16T19:14:25.020Z,5.36
2022-08-16T19:16:51.409Z,5.14
2022-08-16T19:19:17.837Z,5.46
2022-08-16T19:21:44.320Z,5.15
2022-08-16T19:24:10.759Z,4.95
2022-08-16T19:26:45.380Z,5.32
2022-08-16T19:29:11.991Z,5.05
2022-08-16T19:31:39.967Z,5.01
2022-08-16T19:34:06.395Z,5.37
2022-08-16T19:36:36.078Z,4.97
2022-08-16T19:39:04.304Z,4.75
2022-08-16T19:41:31.965Z,4.98
2022-08-16T19:43:58.686Z,5.13
2022-08-16T19:46:25.085Z,5.34
2022-08-16T19:48:51.528Z,5.29
2022-08-16T19:51:17.931Z,5.11
2022-08-16T19:53:44.322Z,5.35
2022-08-16T19:56:10.836Z,5.48
2022-08-16T19:58:37.238Z,5.20
2022-08-16T20:01:03.625Z,5.04
2022-08-16T20:03:30.147Z,5.02
2022-08-16T20:05:56.562Z,4.79
2022-08-16T20:08:22.961Z,5.21
2022-08-16T20:10:49.526Z,5.27
2022-08-16T20:13:15.957Z,5.33
2022-08-16T20:15:42.362Z,5.16
2022-08-16T20:18:21.318Z,4.79
2022-08-16T20:20:51.541Z,4.41
2022-08-16T20:23:24.485Z,4.40
2022-08-16T20:25:51.463Z,5.02
2022-08-16T20:28:40.784Z,4.75
2022-08-16T20:31:04.309Z,5.08
2022-08-16T20:33:30.789Z,4.80
2022-08-16T20:35:57.189Z,4.90
2022-08-16T20:38:23.593Z,5.01
2022-08-16T20:40:50.096Z,4.85
2022-08-16T20:43:16.517Z,5.00
2022-08-16T20:45:42.916Z,5.03
2022-08-16T20:48:09.353Z,5.10
2022-08-16T20:50:35.786Z,4.71
2022-08-16T20:53:02.167Z,4.90
2022-08-16T20:55:28.708Z,5.05
2022-08-16T20:57:55.317Z,5.02
2022-08-16T21:00:21.763Z,5.15
2022-08-16T21:02:48.270Z,4.62
2022-08-16T21:05:14.698Z,4.79
2022-08-16T21:07:41.955Z,4.62
2022-08-16T21:10:08.431Z,4.80
2022-08-16T21:12:37.953Z,5.03
2022-08-16T21:15:04.448Z,4.54
2022-08-16T21:17:31.065Z,4.76
2022-08-16T21:19:57.475Z,4.67
2022-08-16T21:22:23.861Z,4.77
2022-08-16T21:24:53.778Z,4.75
2022-08-16T21:27:20.657Z,4.82
2022-08-16T21:29:48.863Z,5.07
2022-08-16T21:32:15.533Z,4.69
2022-08-16T21:34:41.932Z,4.66
2022-08-16T21:37:08.338Z,4.59
2022-08-16T21:39:34.842Z,4.82
2022-08-16T21:42:01.298Z,4.97
2022-08-16T21:44:38.679Z,4.50
2022-08-16T21:47:05.656Z,4.53
2022-08-16T21:49:34.620Z,4.36
2022-08-16T21:52:01.002Z,4.35
2022-08-16T21:54:27.406Z,4.92
2022-08-16T21:56:53.800Z,4.43
2022-08-16T21:59:20.200Z,4.70
2022-08-16T22:01:46.693Z,4.38
2022-08-16T22:04:37.730Z,4.41
2022-08-16T22:06:59.831Z,4.37
2022-08-16T22:09:26.224Z,4.37
2022-08-16T22:11:52.606Z,4.36
2022-08-16T22:14:19.132Z,4.42
2022-08-16T22:16:45.518Z,4.10
2022-08-16T22:19:11.886Z,4.38
2022-08-16T22:21:38.335Z,4.63
2022-08-16T22:24:04.760Z,4.36
2022-08-16T22:26:32.083Z,4.20
2022-08-16T22:28:58.748Z,4.30
2022-08-16T22:31:25.197Z,3.90
2022-08-16T22:33:51.593Z,3.99
2022-08-16T22:36:18.081Z,4.06
2022-08-16T22:38:53.781Z,4.17
2022-08-16T22:41:22.078Z,4.00
2022-08-16T22:43:48.608Z,4.40
2022-08-16T22:46:15.000Z,4.34
2022-08-16T22:48:42.609Z,3.97
2022-08-16T22:51:10.674Z,3.94
2022-08-16T22:53:37.421Z,4.10
2022-08-16T22:56:04.170Z,4.04
2022-08-16T22:58:36.749Z,4.04
2022-08-16T23:01:03.754Z,3.95
2022-08-16T23:03:30.448Z,4.18
2022-08-16T23:05:56.826Z,4.20
2022-08-16T23:08:35.942Z,4.19
2022-08-16T23:11:06.666Z,3.94
2022-08-16T23:13:33.054Z,3.84
2022-08-16T23:15:59.423Z,4.28
2022-08-16T23:18:27.804Z,4.24
2022-08-16T23:20:54.188Z,4.34
2022-08-16T23:23:22.025Z,4.26
2022-08-16T23:25:48.694Z,3.91
2022-08-16T23:28:15.097Z,4.12
2022-08-16T23:30:41.491Z,3.90
2022-08-16T23:33:08.043Z,4.01
2022-08-16T23:35:45.655Z,3.89
2022-08-16T23:38:37.794Z,4.01
2022-08-16T23:40:58.732Z,4.03
2022-08-16T23:43:25.159Z,3.97
2022-08-16T23:45:51.539Z,3.97
2022-08-16T23:48:17.926Z,4.04
2022-08-16T23:50:44.376Z,3.77
2022-08-16T23:53:10.758Z,4.09
2022-08-16T23:55:37.144Z,3.91
2022-08-16T23:58:03.582Z,3.86
